Panda — PBCS — position and weather

sailwx.info

Track history (hours):
 
Tides and Currents Weather Stations Pressure Air Temp Water Temp Dewpoint Dewpoint Depression Visibility Wind Speed Wind Dir Waves Ship Positions

Panda

Last reported at 2015-Apr-18 07:33 UTC. Time now 2015-Apr-19 15:43 UTC.
Position N 50°40' E 000°49'.

Length 89 m; draft 4.6 m.

Type: Cargo ship. MMSI: 245014000.

Date/timePositionNaut miles runAvg speedWind from/ knotsBaromVisibWave heightAir tempDewpointWater temp
2015-Apr-18 07:33N 50°40' E 000°49'3311.0
2015-Apr-18 04:33N 51°02' E 001°28'1110.6
2015-Apr-18 03:33N 51°09' E 001°40'9 9.2
2015-Apr-18 02:33N 51°16' E 001°49'8 8.1
2015-Apr-18 01:34N 51°23' E 001°56'8 7.5
2015-Apr-18 00:33N 51°29' E 002°04'75 9.2
2015-Apr-17 16:24N 52°02' E 003°53'810.1
2015-Apr-17 15:33N 51°59' E 004°06'10 9.6
2015-Apr-17 14:33N 51°54' E 004°19'5 4.3
2015-Apr-17 13:28N 51°53' E 004°26'0 0.0
2015-Apr-17 12:31N 51°53' E 004°26'0 0.0
2015-Apr-17 11:31N 51°53' E 004°26'0 0.0
2015-Apr-17 10:31N 51°53' E 004°26'0 0.0
2015-Apr-17 09:31N 51°53' E 004°26'1 1.5
2015-Apr-17 08:33N 51°54' E 004°25'0 0.1
2015-Apr-17 07:31N 51°54' E 004°25'0 0.0
2015-Apr-17 06:31N 51°54' E 004°25'0 0.0
2015-Apr-17 05:22N 51°54' E 004°25'0 0.0
2015-Apr-17 04:25N 51°54' E 004°25'0 0.0
2015-Apr-17 03:28N 51°54' E 004°25'0 0.0
2015-Apr-17 02:28N 51°54' E 004°25'0 0.0
2015-Apr-17 01:31N 51°54' E 004°25'0 0.0
2015-Apr-17 00:28N 51°54' E 004°25'0 0.0
2015-Apr-16 23:31N 51°54' E 004°25'0 0.0
2015-Apr-16 22:34N 51°54' E 004°25'0 0.0
2015-Apr-16 21:33N 51°54' E 004°25'0 0.0
2015-Apr-16 20:27N 51°54' E 004°25'0 0.0
2015-Apr-16 19:27N 51°54' E 004°25'0 0.0
2015-Apr-16 18:33N 51°54' E 004°25'0 0.0
2015-Apr-16 17:33N 51°54' E 004°25'0 0.0
2015-Apr-16 16:33N 51°54' E 004°25'0 0.0
2015-Apr-16 15:33N 51°54' E 004°25'0 0.0
2015-Apr-16 14:33N 51°54' E 004°25'0 0.0
2015-Apr-16 13:33N 51°54' E 004°25'0 0.0
2015-Apr-16 12:33N 51°54' E 004°25'0 0.0
2015-Apr-16 11:33N 51°54' E 004°25'0 0.0
2015-Apr-16 10:30N 51°54' E 004°25'0 0.0
2015-Apr-16 09:33N 51°54' E 004°25'0 0.0
2015-Apr-16 08:33N 51°54' E 004°25'0 0.0
2015-Apr-16 07:33N 51°54' E 004°25'0 0.0
2015-Apr-16 06:15N 51°54' E 004°25'0 0.0
2015-Apr-16 05:33N 51°54' E 004°25'0 0.0
2015-Apr-16 04:33N 51°54' E 004°25'0 0.0
2015-Apr-16 03:33N 51°54' E 004°25'0 0.0
2015-Apr-16 02:33N 51°54' E 004°25'0 0.0
2015-Apr-16 01:33N 51°54' E 004°25'0 0.0
2015-Apr-16 00:27N 51°54' E 004°25'0 0.0
2015-Apr-15 23:33N 51°54' E 004°25'0 0.0
2015-Apr-15 22:33N 51°54' E 004°25'0 0.0
2015-Apr-15 21:33N 51°54' E 004°25'0 0.0
2015-Apr-15 20:33N 51°54' E 004°25'0 0.0
2015-Apr-15 19:33N 51°54' E 004°25'0 0.0
2015-Apr-15 18:33N 51°54' E 004°25'0 0.0
2015-Apr-15 17:33N 51°54' E 004°25'0 0.0
2015-Apr-15 16:33N 51°54' E 004°25'0 0.0
2015-Apr-15 15:33N 51°54' E 004°25'0 0.0
2015-Apr-15 14:33N 51°54' E 004°25'0 0.0
2015-Apr-15 13:33N 51°54' E 004°25'0 0.0
2015-Apr-15 12:33N 51°54' E 004°25'0 0.0
2015-Apr-15 11:32N 51°54' E 004°25'0 0.0
2015-Apr-15 10:32N 51°54' E 004°25'0 0.0
2015-Apr-15 09:32N 51°54' E 004°25'0 0.0
2015-Apr-15 08:32N 51°54' E 004°25'0 0.0
2015-Apr-15 07:32N 51°54' E 004°25'0 0.0
2015-Apr-15 06:32N 51°54' E 004°25'0 0.0
2015-Apr-15 05:33N 51°54' E 004°25'0 0.4
2015-Apr-15 04:33N 51°54' E 004°25'7 7.0
2015-Apr-15 03:33N 51°56' E 004°14'7 7.0
2015-Apr-15 02:33N 51°59' E 004°04'11 9.9
2015-Apr-15 01:26N 51°58' E 003°46'2511.2
2015-Apr-14 23:13N 51°52' E 003°07'3011.2
2015-Apr-14 20:33N 51°36' E 002°26'1111.4
2015-Apr-14 19:33N 51°27' E 002°15'1110.8
2015-Apr-14 18:33N 51°17' E 002°07'9 9.4
2015-Apr-14 17:34N 51°11' E 001°57'9 8.7
2015-Apr-14 16:33N 51°05' E 001°46'8 8.3
2015-Apr-14 15:33N 50°59' E 001°37'8 7.9
2015-Apr-14 14:33N 50°53' E 001°29'18 8.4
2015-Apr-14 12:27N 50°39' E 001°12'19 9.1
2015-Apr-14 10:23N 50°30' E 000°46'11610.6
2015-Apr-13 23:25N 49°56' W 002°08'  
Track history (hours):
 
Tides and Currents Weather Stations Pressure Air Temp Water Temp Dewpoint Dewpoint Depression Visibility Wind Speed Wind Dir Waves Ship Positions

Panda

Last reported at 2015-Apr-18 07:33 UTC. Time now 2015-Apr-19 15:43 UTC.
Position N 50°40' E 000°49'.

Length 89 m; draft 4.6 m.

Type: Cargo ship. MMSI: 245014000.

Date/timePositionNaut miles runAvg speedWind from/ knotsBaromVisibWave heightAir tempDewpointWater temp
2015-Apr-18 07:33N 50°40' E 000°49'3311.0
2015-Apr-18 04:33N 51°02' E 001°28'1110.6
2015-Apr-18 03:33N 51°09' E 001°40'9 9.2
2015-Apr-18 02:33N 51°16' E 001°49'8 8.1
2015-Apr-18 01:34N 51°23' E 001°56'8 7.5
2015-Apr-18 00:33N 51°29' E 002°04'75 9.2
2015-Apr-17 16:24N 52°02' E 003°53'810.1
2015-Apr-17 15:33N 51°59' E 004°06'10 9.6
2015-Apr-17 14:33N 51°54' E 004°19'5 4.3
2015-Apr-17 13:28N 51°53' E 004°26'0 0.0
2015-Apr-17 12:31N 51°53' E 004°26'0 0.0
2015-Apr-17 11:31N 51°53' E 004°26'0 0.0
2015-Apr-17 10:31N 51°53' E 004°26'0 0.0
2015-Apr-17 09:31N 51°53' E 004°26'1 1.5
2015-Apr-17 08:33N 51°54' E 004°25'0 0.1
2015-Apr-17 07:31N 51°54' E 004°25'0 0.0
2015-Apr-17 06:31N 51°54' E 004°25'0 0.0
2015-Apr-17 05:22N 51°54' E 004°25'0 0.0
2015-Apr-17 04:25N 51°54' E 004°25'0 0.0
2015-Apr-17 03:28N 51°54' E 004°25'0 0.0
2015-Apr-17 02:28N 51°54' E 004°25'0 0.0
2015-Apr-17 01:31N 51°54' E 004°25'0 0.0
2015-Apr-17 00:28N 51°54' E 004°25'0 0.0
2015-Apr-16 23:31N 51°54' E 004°25'0 0.0
2015-Apr-16 22:34N 51°54' E 004°25'0 0.0
2015-Apr-16 21:33N 51°54' E 004°25'0 0.0
2015-Apr-16 20:27N 51°54' E 004°25'0 0.0
2015-Apr-16 19:27N 51°54' E 004°25'0 0.0
2015-Apr-16 18:33N 51°54' E 004°25'0 0.0
2015-Apr-16 17:33N 51°54' E 004°25'0 0.0
2015-Apr-16 16:33N 51°54' E 004°25'0 0.0
2015-Apr-16 15:33N 51°54' E 004°25'0 0.0
2015-Apr-16 14:33N 51°54' E 004°25'0 0.0
2015-Apr-16 13:33N 51°54' E 004°25'0 0.0
2015-Apr-16 12:33N 51°54' E 004°25'0 0.0
2015-Apr-16 11:33N 51°54' E 004°25'0 0.0
2015-Apr-16 10:30N 51°54' E 004°25'0 0.0
2015-Apr-16 09:33N 51°54' E 004°25'0 0.0
2015-Apr-16 08:33N 51°54' E 004°25'0 0.0
2015-Apr-16 07:33N 51°54' E 004°25'0 0.0
2015-Apr-16 06:15N 51°54' E 004°25'0 0.0
2015-Apr-16 05:33N 51°54' E 004°25'0 0.0
2015-Apr-16 04:33N 51°54' E 004°25'0 0.0
2015-Apr-16 03:33N 51°54' E 004°25'0 0.0
2015-Apr-16 02:33N 51°54' E 004°25'0 0.0
2015-Apr-16 01:33N 51°54' E 004°25'0 0.0
2015-Apr-16 00:27N 51°54' E 004°25'0 0.0
2015-Apr-15 23:33N 51°54' E 004°25'0 0.0
2015-Apr-15 22:33N 51°54' E 004°25'0 0.0
2015-Apr-15 21:33N 51°54' E 004°25'0 0.0
2015-Apr-15 20:33N 51°54' E 004°25'0 0.0
2015-Apr-15 19:33N 51°54' E 004°25'0 0.0
2015-Apr-15 18:33N 51°54' E 004°25'0 0.0
2015-Apr-15 17:33N 51°54' E 004°25'0 0.0
2015-Apr-15 16:33N 51°54' E 004°25'0 0.0
2015-Apr-15 15:33N 51°54' E 004°25'0 0.0
2015-Apr-15 14:33N 51°54' E 004°25'0 0.0
2015-Apr-15 13:33N 51°54' E 004°25'0 0.0
2015-Apr-15 12:33N 51°54' E 004°25'0 0.0
2015-Apr-15 11:32N 51°54' E 004°25'0 0.0
2015-Apr-15 10:32N 51°54' E 004°25'0 0.0
2015-Apr-15 09:32N 51°54' E 004°25'0 0.0
2015-Apr-15 08:32N 51°54' E 004°25'0 0.0
2015-Apr-15 07:32N 51°54' E 004°25'0 0.0
2015-Apr-15 06:32N 51°54' E 004°25'0 0.0
2015-Apr-15 05:33N 51°54' E 004°25'0 0.4
2015-Apr-15 04:33N 51°54' E 004°25'7 7.0
2015-Apr-15 03:33N 51°56' E 004°14'7 7.0
2015-Apr-15 02:33N 51°59' E 004°04'11 9.9
2015-Apr-15 01:26N 51°58' E 003°46'2511.2
2015-Apr-14 23:13N 51°52' E 003°07'3011.2
2015-Apr-14 20:33N 51°36' E 002°26'1111.4
2015-Apr-14 19:33N 51°27' E 002°15'1110.8
2015-Apr-14 18:33N 51°17' E 002°07'9 9.4
2015-Apr-14 17:34N 51°11' E 001°57'9 8.7
2015-Apr-14 16:33N 51°05' E 001°46'8 8.3
2015-Apr-14 15:33N 50°59' E 001°37'8 7.9
2015-Apr-14 14:33N 50°53' E 001°29'18 8.4
2015-Apr-14 12:27N 50°39' E 001°12'19 9.1
2015-Apr-14 10:23N 50°30' E 000°46'11610.6
2015-Apr-13 23:25N 49°56' W 002°08'  

Dump ship's entire track history